Time;durP1;ratioP1;P1;durP2;ratioP2;P2;SDS_P1;SDS_P2;PMS_P1;PMS_P2;Temp;Humidity;BMP_temperature;BMP_pressure;BME280_temperature;BME280_humidity;BME280_pressure;Samples;Min_cycle;Max_cycle;Signal;HPM_P1;HPM_P2
2023/05/24 00:00:28;;;;;;;;;;;;;;;13.44;59.75;98237.91;5027217;28;20304;-57
2023/05/24 00:02:56;;;;;;;;;;;;;;;13.31;59.86;98230.69;5033441;28;19936;-57
2023/05/24 00:05:24;;;;;;;;;;;;;;;13.38;58.78;98239.22;5034041;28;20429;-57
2023/05/24 00:07:52;;;;;;;;;;;;;;;13.37;58.47;98234.88;5031587;28;19962;-59
2023/05/24 00:10:19;;;;;;;;;;;;;;;13.44;57.68;98232.47;5034513;28;19936;-57
2023/05/24 00:12:47;;;;;;;;;;;;;;;13.43;56.78;98239.06;5031262;28;19967;-57
2023/05/24 00:15:15;;;;;;;;;;;;;;;13.49;56.08;98235.03;5023660;28;20026;-58
2023/05/24 00:17:45;;;;;;;;;;;;;;;13.44;56.17;98228.94;5027034;28;19993;-57
2023/05/24 00:20:13;;;;;;;;;;;;;;;13.41;56.25;98232.28;5027650;28;19943;-57
2023/05/24 00:22:41;;;;;;;;;;;;;;;13.33;56.55;98231.97;5037878;28;19943;-57
2023/05/24 00:25:09;;;;;;;;;;;;;;;13.25;56.67;98234.69;5041359;28;19946;-57
2023/05/24 00:27:37;;;;;;;;;;;;;;;13.24;56.78;98223.00;5015678;28;19956;-57
2023/05/24 00:30:05;;;;;;;;;;;;;;;13.20;56.98;98226.63;5025977;28;19938;-57
2023/05/24 00:32:33;;;;;;;;;;;;;;;13.13;57.17;98226.31;5034654;28;20495;-57
2023/05/24 00:35:05;;;;;;;;;;;;;;;13.15;57.21;98215.88;5028938;28;19935;-57
2023/05/24 00:37:33;;;;;;;;;;;;;;;13.18;57.25;98223.44;5041968;28;19936;-57
2023/05/24 00:40:00;;;;;;;;;;;;;;;13.16;57.08;98214.78;5031917;28;19989;-57
2023/05/24 00:42:28;;;;;;;;;;;;;;;13.00;57.61;98211.72;5030302;28;20440;-58
2023/05/24 00:44:56;;;;;;;;;;;;;;;12.98;57.33;98220.22;5030926;28;19958;-58
2023/05/24 00:47:24;;;;;;;;;;;;;;;12.86;57.80;98211.84;5021669;28;19998;-57
2023/05/24 00:49:52;;;;;;;;;;;;;;;12.88;57.76;98216.97;5054718;28;19935;-57
2023/05/24 00:52:21;;;;;;;;;;;;;;;12.92;57.66;98210.56;5036562;28;19935;-57
2023/05/24 00:54:50;;;;;;;;;;;;;;;12.78;58.42;98218.91;5016985;28;19963;-57
2023/05/24 00:57:18;;;;;;;;;;;;;;;12.82;58.28;98216.34;5039050;28;19979;-58
2023/05/24 00:59:48;;;;;;;;;;;;;;;12.90;57.95;98212.03;5047752;28;19952;-57
2023/05/24 01:02:17;;;;;;;;;;;;;;;12.88;58.65;98212.34;5025617;28;19952;-57
2023/05/24 01:04:47;;;;;;;;;;;;;;;12.96;57.90;98217.00;5015828;28;19935;-58
2023/05/24 01:07:16;;;;;;;;;;;;;;;12.82;58.04;98217.13;5013385;28;19936;-57
2023/05/24 01:09:50;;;;;;;;;;;;;;;12.70;58.35;98214.22;5034916;28;19943;-57
2023/05/24 01:12:20;;;;;;;;;;;;;;;12.75;58.41;98216.81;5034248;28;19941;-57
2023/05/24 01:14:51;;;;;;;;;;;;;;;12.75;58.22;98218.75;5021835;28;19978;-57
2023/05/24 01:17:19;;;;;;;;;;;;;;;12.74;58.02;98214.41;5040704;28;19954;-57
2023/05/24 01:19:52;;;;;;;;;;;;;;;12.74;57.48;98204.31;5042682;28;20319;-57
2023/05/24 01:22:25;;;;;;;;;;;;;;;12.68;57.26;98208.31;5029783;28;19973;-58
2023/05/24 01:24:56;;;;;;;;;;;;;;;12.55;57.64;98199.13;5044546;28;20308;-57
2023/05/24 01:27:25;;;;;;;;;;;;;;;12.54;57.58;98204.91;5011665;28;20046;-58
2023/05/24 01:29:53;;;;;;;;;;;;;;;12.60;57.48;98203.63;5029628;28;19921;-57
2023/05/24 01:32:20;;;;;;;;;;;;;;;12.50;57.75;98214.81;5021559;28;19967;-57
2023/05/24 01:34:48;;;;;;;;;;;;;;;12.43;57.92;98209.84;5032392;28;19954;-58
2023/05/24 01:37:16;;;;;;;;;;;;;;;12.40;58.04;98215.91;5034515;28;19979;-57
2023/05/24 01:39:43;;;;;;;;;;;;;;;12.37;58.42;98215.75;5017524;28;20039;-57
2023/05/24 01:42:11;;;;;;;;;;;;;;;12.48;57.37;98206.97;5029880;28;20380;-57
2023/05/24 01:44:42;;;;;;;;;;;;;;;12.43;57.73;98217.22;5014347;28;19936;-57
2023/05/24 01:47:16;;;;;;;;;;;;;;;12.50;56.87;98204.72;5042537;28;19946;-57
2023/05/24 01:49:46;;;;;;;;;;;;;;;12.42;57.27;98213.69;5034275;28;19936;-57
2023/05/24 01:52:16;;;;;;;;;;;;;;;12.38;57.31;98209.97;5030279;28;19962;-57
2023/05/24 01:54:44;;;;;;;;;;;;;;;12.41;56.19;98212.09;5031452;28;19935;-58
2023/05/24 01:57:12;;;;;;;;;;;;;;;12.31;56.24;98209.66;5014734;28;19936;-57
2023/05/24 01:59:42;;;;;;;;;;;;;;;12.26;56.59;98209.78;5013648;28;20282;-57
2023/05/24 02:02:10;;;;;;;;;;;;;;;12.28;55.89;98212.97;5037049;28;20408;-56
2023/05/24 02:04:40;;;;;;;;;;;;;;;12.19;56.30;98212.94;5027334;28;19921;-57
2023/05/24 02:07:07;;;;;;;;;;;;;;;12.24;55.49;98212.00;5013934;28;19925;-57
2023/05/24 02:09:37;;;;;;;;;;;;;;;12.06;56.32;98213.84;5029247;28;20337;-57
2023/05/24 02:12:06;;;;;;;;;;;;;;;12.05;56.27;98210.34;5029637;28;19929;-58
2023/05/24 02:14:36;;;;;;;;;;;;;;;12.05;55.95;98215.78;5028517;28;20424;-57
2023/05/24 02:17:06;;;;;;;;;;;;;;;12.07;55.40;98212.72;5026483;28;19928;-57
2023/05/24 02:19:35;;;;;;;;;;;;;;;11.99;55.54;98217.03;5021959;28;19974;-57
2023/05/24 02:22:06;;;;;;;;;;;;;;;12.04;55.29;98218.81;5014586;28;19931;-58
2023/05/24 02:24:35;;;;;;;;;;;;;;;12.01;54.70;98214.78;5012625;28;20296;-57
2023/05/24 02:27:03;;;;;;;;;;;;;;;11.95;55.12;98232.38;5033498;28;20460;-57
2023/05/24 02:29:31;;;;;;;;;;;;;;;11.86;55.71;98226.06;5021136;28;19978;-57
2023/05/24 02:31:58;;;;;;;;;;;;;;;11.84;55.80;98231.03;5012517;28;20013;-59
2023/05/24 02:34:27;;;;;;;;;;;;;;;11.84;55.74;98225.59;5044566;28;20432;-57
2023/05/24 02:36:55;;;;;;;;;;;;;;;11.83;55.90;98228.66;5043759;28;20385;-57
2023/05/24 02:39:23;;;;;;;;;;;;;;;11.87;55.58;98224.97;5045558;28;19921;-57
2023/05/24 02:41:51;;;;;;;;;;;;;;;11.75;55.73;98224.69;5029422;28;19925;-58
2023/05/24 02:44:19;;;;;;;;;;;;;;;11.87;55.60;98219.50;5034560;28;19968;-57
2023/05/24 02:46:47;;;;;;;;;;;;;;;11.93;55.14;98210.13;5026623;28;19952;-58
2023/05/24 02:49:15;;;;;;;;;;;;;;;11.81;55.40;98215.28;5035696;28;20286;-57
2023/05/24 02:51:44;;;;;;;;;;;;;;;11.87;55.63;98210.53;5037553;28;19921;-57
2023/05/24 02:54:12;;;;;;;;;;;;;;;11.82;55.24;98214.19;5045005;28;19921;-57
2023/05/24 02:56:40;;;;;;;;;;;;;;;11.82;54.70;98216.13;5017276;28;19922;-58
2023/05/24 02:59:08;;;;;;;;;;;;;;;11.65;55.56;98219.50;5016452;28;19925;-59
2023/05/24 03:01:37;;;;;;;;;;;;;;;11.62;55.73;98220.16;5043665;28;20024;-57
2023/05/24 03:04:05;;;;;;;;;;;;;;;11.73;54.73;98225.03;5051937;28;19921;-56
2023/05/24 03:06:33;;;;;;;;;;;;;;;11.85;54.42;98223.69;5015255;28;19929;-59
2023/05/24 03:09:03;;;;;;;;;;;;;;;11.82;54.28;98221.56;5031061;28;19948;-56
2023/05/24 03:11:30;;;;;;;;;;;;;;;11.78;54.25;98226.81;5046565;28;20005;-58
2023/05/24 03:13:58;;;;;;;;;;;;;;;11.71;54.46;98227.25;5032087;28;19921;-57
2023/05/24 03:16:26;;;;;;;;;;;;;;;11.75;54.54;98230.16;5010906;28;19921;-56
2023/05/24 03:18:55;;;;;;;;;;;;;;;11.88;54.06;98237.47;5015972;28;19921;-57
2023/05/24 03:21:23;;;;;;;;;;;;;;;11.80;54.20;98232.75;5022323;28;19921;-57
2023/05/24 03:23:51;;;;;;;;;;;;;;;11.67;54.72;98230.91;5031887;28;19928;-57
2023/05/24 03:26:20;;;;;;;;;;;;;;;11.81;54.10;98231.63;5056750;28;19967;-56
2023/05/24 03:28:49;;;;;;;;;;;;;;;11.85;54.26;98232.66;5038248;28;19925;-57
2023/05/24 03:31:22;;;;;;;;;;;;;;;11.68;54.60;98230.59;5017749;28;19921;-57
2023/05/24 03:33:51;;;;;;;;;;;;;;;11.69;54.73;98234.91;5057313;28;19935;-57
2023/05/24 03:36:19;;;;;;;;;;;;;;;11.69;55.03;98234.13;5032266;28;20718;-57
2023/05/24 03:38:47;;;;;;;;;;;;;;;11.73;55.10;98233.19;5053452;28;20298;-57
2023/05/24 03:41:15;;;;;;;;;;;;;;;11.73;54.95;98229.66;5019134;28;20358;-57
2023/05/24 03:43:44;;;;;;;;;;;;;;;11.68;54.91;98238.75;5033433;28;19928;-57
2023/05/24 03:46:16;;;;;;;;;;;;;;;11.63;55.28;98232.66;5008938;28;19922;-57
2023/05/24 03:48:44;;;;;;;;;;;;;;;11.62;55.58;98234.56;5012196;28;19956;-58
2023/05/24 03:51:12;;;;;;;;;;;;;;;11.58;55.87;98230.03;5030926;28;19975;-57
2023/05/24 03:53:39;;;;;;;;;;;;;;;11.63;55.87;98236.16;5031778;28;20013;-57
2023/05/24 03:56:07;;;;;;;;;;;;;;;11.64;56.19;98231.53;5018368;28;20355;-57
2023/05/24 03:58:35;;;;;;;;;;;;;;;11.72;56.03;98231.59;5031452;28;19975;-57
2023/05/24 04:01:04;;;;;;;;;;;;;;;11.61;56.59;98237.56;5029633;28;19956;-58
2023/05/24 04:03:32;;;;;;;;;;;;;;;11.70;56.31;98241.16;5031869;28;19948;-57
2023/05/24 04:06:02;;;;;;;;;;;;;;;11.64;56.77;98237.75;5024122;28;19921;-57
2023/05/24 04:08:30;;;;;;;;;;;;;;;11.56;56.74;98235.81;5039570;28;20015;-57
2023/05/24 04:10:58;;;;;;;;;;;;;;;11.45;57.07;98243.41;5048045;28;19925;-58
2023/05/24 04:13:26;;;;;;;;;;;;;;;11.43;57.22;98242.09;5039018;28;19960;-56
2023/05/24 04:15:54;;;;;;;;;;;;;;;11.45;57.02;98246.13;5021222;28;20016;-57
2023/05/24 04:18:23;;;;;;;;;;;;;;;11.36;57.35;98247.16;5011714;28;19921;-57
2023/05/24 04:20:51;;;;;;;;;;;;;;;11.42;57.42;98244.00;5027156;28;20027;-57
2023/05/24 04:23:19;;;;;;;;;;;;;;;11.51;56.91;98236.72;5013859;28;20025;-57
2023/05/24 04:25:47;;;;;;;;;;;;;;;11.40;56.99;98242.69;5031505;28;19975;-57
2023/05/24 04:28:15;;;;;;;;;;;;;;;11.27;56.87;98241.66;5050522;28;19921;-57
2023/05/24 04:30:45;;;;;;;;;;;;;;;11.14;57.33;98235.16;5023127;28;20286;-57
2023/05/24 04:33:13;;;;;;;;;;;;;;;11.23;57.26;98237.94;5027770;28;20013;-57
2023/05/24 04:35:43;;;;;;;;;;;;;;;11.37;56.79;98241.41;5029991;28;19921;-56
2023/05/24 04:38:11;;;;;;;;;;;;;;;11.41;56.61;98236.97;5013409;28;19925;-57
2023/05/24 04:40:40;;;;;;;;;;;;;;;11.51;56.65;98236.72;5035142;28;19926;-57
2023/05/24 04:43:09;;;;;;;;;;;;;;;11.42;56.77;98241.28;5030447;28;19925;-59
2023/05/24 04:45:37;;;;;;;;;;;;;;;11.52;56.66;98241.06;5022420;28;20326;-57
2023/05/24 04:48:05;;;;;;;;;;;;;;;11.45;56.69;98246.13;5027797;28;19921;-57
2023/05/24 04:50:34;;;;;;;;;;;;;;;11.51;56.97;98244.09;5037658;28;20051;-57
2023/05/24 04:53:03;;;;;;;;;;;;;;;11.59;57.18;98246.06;5028039;28;19921;-57
2023/05/24 04:55:31;;;;;;;;;;;;;;;11.74;57.56;98242.16;5030664;28;19933;-57
2023/05/24 04:57:59;;;;;;;;;;;;;;;11.78;57.54;98243.16;5030685;28;19921;-57
2023/05/24 05:00:27;;;;;;;;;;;;;;;11.66;57.18;98242.88;5018489;28;20367;-57
2023/05/24 05:02:55;;;;;;;;;;;;;;;11.55;58.05;98243.13;5026550;28;19921;-57
2023/05/24 05:05:23;;;;;;;;;;;;;;;11.59;58.11;98239.81;5027083;28;19928;-57
2023/05/24 05:07:50;;;;;;;;;;;;;;;11.75;57.35;98239.13;5031789;28;20033;-58
2023/05/24 05:10:19;;;;;;;;;;;;;;;11.85;56.65;98243.53;5029487;28;19926;-57
2023/05/24 05:12:50;;;;;;;;;;;;;;;11.90;56.32;98246.13;5030869;28;19928;-57
2023/05/24 05:15:18;;;;;;;;;;;;;;;11.91;55.73;98245.00;5027492;28;19972;-57
2023/05/24 05:17:45;;;;;;;;;;;;;;;11.99;55.57;98248.91;5030324;28;19956;-58
2023/05/24 05:20:13;;;;;;;;;;;;;;;12.01;55.33;98247.47;5036629;28;19921;-57
2023/05/24 05:22:45;;;;;;;;;;;;;;;12.04;55.36;98252.31;5025326;28;19925;-58
2023/05/24 05:25:13;;;;;;;;;;;;;;;11.96;55.98;98250.31;5031974;28;20333;-57
2023/05/24 05:27:42;;;;;;;;;;;;;;;12.00;55.26;98248.59;5024919;28;20010;-57
2023/05/24 05:30:10;;;;;;;;;;;;;;;12.01;54.89;98252.13;5026571;28;20367;-57
2023/05/24 05:32:38;;;;;;;;;;;;;;;11.93;55.61;98255.56;5035879;28;19947;-61
2023/05/24 05:35:06;;;;;;;;;;;;;;;11.79;55.87;98255.63;5029909;28;19921;-58
2023/05/24 05:37:34;;;;;;;;;;;;;;;11.85;55.72;98259.88;5028323;28;19921;-57
2023/05/24 05:40:03;;;;;;;;;;;;;;;11.84;55.79;98258.28;5015775;28;20322;-58
2023/05/24 05:42:31;;;;;;;;;;;;;;;11.89;55.21;98255.41;5033763;28;19925;-57
2023/05/24 05:45:00;;;;;;;;;;;;;;;11.74;55.71;98258.50;5042739;28;19921;-58
2023/05/24 05:47:27;;;;;;;;;;;;;;;11.74;55.59;98261.22;5025136;28;19921;-57
2023/05/24 05:49:58;;;;;;;;;;;;;;;11.68;55.79;98254.28;5026654;28;19921;-57
2023/05/24 05:52:25;;;;;;;;;;;;;;;11.79;55.20;98261.09;5038590;28;19971;-57
2023/05/24 05:54:55;;;;;;;;;;;;;;;11.84;54.42;98265.63;5021481;28;19928;-57
2023/05/24 05:57:23;;;;;;;;;;;;;;;11.78;54.85;98264.94;5025508;28;19952;-57
2023/05/24 05:59:51;;;;;;;;;;;;;;;11.88;54.44;98270.16;5029131;28;19939;-58
2023/05/24 06:02:21;;;;;;;;;;;;;;;11.89;54.73;98270.94;5021289;28;20319;-57
2023/05/24 06:04:49;;;;;;;;;;;;;;;11.95;54.15;98275.94;5035688;28;19925;-57
2023/05/24 06:07:17;;;;;;;;;;;;;;;11.85;54.61;98278.94;5023543;28;19925;-57
2023/05/24 06:09:44;;;;;;;;;;;;;;;11.96;54.10;98277.56;5023598;28;19949;-57
2023/05/24 06:12:12;;;;;;;;;;;;;;;12.01;53.93;98280.16;5015621;28;19921;-57
2023/05/24 06:14:40;;;;;;;;;;;;;;;11.99;53.69;98282.38;5039491;28;19925;-61
2023/05/24 06:17:08;;;;;;;;;;;;;;;11.90;53.55;98283.44;5028444;28;19921;-58
2023/05/24 06:19:37;;;;;;;;;;;;;;;11.92;53.50;98284.72;5016794;28;19921;-57
2023/05/24 06:22:05;;;;;;;;;;;;;;;11.88;53.54;98277.50;5040467;28;19924;-57
2023/05/24 06:24:34;;;;;;;;;;;;;;;11.93;53.36;98283.63;5039853;28;19968;-56
2023/05/24 06:27:01;;;;;;;;;;;;;;;12.03;52.90;98286.06;5016209;28;20325;-58
2023/05/24 06:29:31;;;;;;;;;;;;;;;12.05;52.98;98291.22;5006115;28;19972;-57
2023/05/24 06:31:59;;;;;;;;;;;;;;;12.01;52.70;98290.25;4993726;28;19921;-57
2023/05/24 06:34:28;;;;;;;;;;;;;;;11.92;53.13;98298.34;5015005;28;20456;-57
2023/05/24 06:36:58;;;;;;;;;;;;;;;11.87;53.18;98301.19;5020448;28;19921;-57
2023/05/24 06:39:26;;;;;;;;;;;;;;;11.83;53.29;98292.06;5006093;28;19938;-57
2023/05/24 06:41:54;;;;;;;;;;;;;;;11.84;53.71;98299.09;5014277;28;20486;-57
2023/05/24 06:44:30;;;;;;;;;;;;;;;11.79;53.44;98299.19;5011091;28;19929;-59
2023/05/24 06:46:58;;;;;;;;;;;;;;;11.69;53.82;98308.41;5008286;28;20024;-58
2023/05/24 06:49:28;;;;;;;;;;;;;;;11.81;53.19;98310.56;5012362;28;20028;-58
2023/05/24 06:51:57;;;;;;;;;;;;;;;11.77;53.51;98312.28;5015205;28;19922;-60
2023/05/24 06:54:25;;;;;;;;;;;;;;;11.78;53.05;98311.19;5006139;28;19926;-57
2023/05/24 06:56:54;;;;;;;;;;;;;;;11.74;53.48;98302.84;5020878;28;19929;-56
2023/05/24 06:59:22;;;;;;;;;;;;;;;11.62;53.19;98312.69;5003774;28;19925;-57
2023/05/24 07:01:56;;;;;;;;;;;;;;;11.48;53.66;98316.22;5013857;28;19922;-57
2023/05/24 07:04:27;;;;;;;;;;;;;;;11.63;53.82;98315.09;5022348;28;19933;-57
2023/05/24 07:06:56;;;;;;;;;;;;;;;11.85;52.87;98319.75;5015013;28;19928;-60
2023/05/24 07:09:25;;;;;;;;;;;;;;;11.92;52.84;98319.31;5005475;28;20317;-57
2023/05/24 07:11:53;;;;;;;;;;;;;;;11.97;53.10;98321.91;5018436;28;19925;-57
2023/05/24 07:14:21;;;;;;;;;;;;;;;12.01;52.69;98322.91;5018408;28;19921;-56
2023/05/24 07:16:49;;;;;;;;;;;;;;;12.10;52.43;98318.34;5010031;28;19926;-57
2023/05/24 07:19:17;;;;;;;;;;;;;;;12.19;52.02;98323.81;5016219;28;19936;-57
2023/05/24 07:21:45;;;;;;;;;;;;;;;12.05;51.99;98330.16;5014664;28;19964;-57
2023/05/24 07:24:13;;;;;;;;;;;;;;;12.14;51.91;98329.41;5005618;28;19925;-57
2023/05/24 07:26:44;;;;;;;;;;;;;;;12.24;51.68;98329.13;5021914;28;19933;-57
2023/05/24 07:29:12;;;;;;;;;;;;;;;12.33;51.78;98324.53;5027406;28;19957;-57
2023/05/24 07:31:42;;;;;;;;;;;;;;;12.32;51.71;98328.41;5028501;28;20362;-58
2023/05/24 07:34:10;;;;;;;;;;;;;;;12.32;51.89;98331.13;5034903;28;19971;-57
2023/05/24 07:36:39;;;;;;;;;;;;;;;12.51;51.32;98328.94;5036381;28;19927;-57
2023/05/24 07:39:08;;;;;;;;;;;;;;;12.50;51.71;98324.63;5033462;28;19921;-59
2023/05/24 07:41:36;;;;;;;;;;;;;;;12.53;51.66;98328.66;5033405;28;19949;-57
2023/05/24 07:44:06;;;;;;;;;;;;;;;12.47;51.33;98332.66;5037095;28;19920;-58
2023/05/24 07:46:36;;;;;;;;;;;;;;;12.41;51.96;98326.53;5009797;28;19937;-57
2023/05/24 07:49:04;;;;;;;;;;;;;;;12.49;51.43;98323.03;5033881;28;19921;-58
2023/05/24 07:51:33;;;;;;;;;;;;;;;12.53;50.83;98332.19;5036949;28;20435;-57
2023/05/24 07:54:01;;;;;;;;;;;;;;;12.48;51.15;98328.78;5033861;28;19921;-57
2023/05/24 07:56:29;;;;;;;;;;;;;;;12.51;51.16;98330.88;5032483;28;19925;-57
2023/05/24 07:59:02;;;;;;;;;;;;;;;12.38;51.27;98327.13;5029761;28;19979;-59
2023/05/24 08:01:34;;;;;;;;;;;;;;;12.32;51.21;98331.91;5026887;28;19943;-57
2023/05/24 08:04:02;;;;;;;;;;;;;;;12.43;51.08;98337.09;5048119;28;19922;-57
2023/05/24 08:06:33;;;;;;;;;;;;;;;12.43;51.20;98328.94;5031164;28;20012;-57
2023/05/24 08:09:02;;;;;;;;;;;;;;;12.30;51.52;98333.34;5034247;28;19991;-57
2023/05/24 08:11:30;;;;;;;;;;;;;;;12.17;52.12;98323.34;5030898;28;20468;-57
2023/05/24 08:13:58;;;;;;;;;;;;;;;12.20;52.18;98328.97;5031294;28;19987;-57
2023/05/24 08:16:26;;;;;;;;;;;;;;;12.40;51.66;98330.34;5024748;28;20463;-57
2023/05/24 08:18:56;;;;;;;;;;;;;;;12.42;51.78;98333.59;5032462;28;20352;-57
2023/05/24 08:21:23;;;;;;;;;;;;;;;12.43;51.59;98334.38;5029047;28;19979;-57
2023/05/24 08:23:54;;;;;;;;;;;;;;;12.32;51.97;98323.75;5019795;28;20388;-59
2023/05/24 08:26:23;;;;;;;;;;;;;;;12.23;52.00;98324.81;5025320;28;19928;-58
2023/05/24 08:28:51;;;;;;;;;;;;;;;12.25;51.82;98333.47;5005479;28;19922;-58
2023/05/24 08:31:19;;;;;;;;;;;;;;;12.28;51.70;98339.09;5005016;28;19979;-57
2023/05/24 08:33:49;;;;;;;;;;;;;;;12.29;51.91;98339.91;5001863;28;19926;-57
2023/05/24 08:36:18;;;;;;;;;;;;;;;12.23;52.11;98341.16;5003686;28;19961;-58
2023/05/24 08:38:46;;;;;;;;;;;;;;;12.42;51.69;98347.22;5011855;28;19921;-57
2023/05/24 08:41:13;;;;;;;;;;;;;;;12.46;51.28;98350.88;5011858;28;19968;-57
2023/05/24 08:43:42;;;;;;;;;;;;;;;12.50;51.65;98346.44;5010237;28;19921;-57
2023/05/24 08:46:11;;;;;;;;;;;;;;;12.54;51.52;98347.41;5000529;28;19933;-58
2023/05/24 08:48:42;;;;;;;;;;;;;;;12.58;51.48;98348.41;5012039;28;19944;-57
2023/05/24 08:51:14;;;;;;;;;;;;;;;12.48;51.64;98353.31;5012164;28;19921;-56
2023/05/24 08:53:47;;;;;;;;;;;;;;;12.37;51.63;98347.34;5013909;28;19968;-60
2023/05/24 08:56:17;;;;;;;;;;;;;;;12.34;51.85;98350.66;5012018;28;19967;-59
2023/05/24 08:58:45;;;;;;;;;;;;;;;12.38;51.75;98357.13;4995104;28;19925;-57
2023/05/24 09:01:13;;;;;;;;;;;;;;;12.45;51.90;98352.00;5008178;28;20351;-57
2023/05/24 09:03:42;;;;;;;;;;;;;;;12.57;51.63;98360.44;5015195;28;19921;-57
2023/05/24 09:06:10;;;;;;;;;;;;;;;12.61;51.04;98357.06;5011047;28;19925;-57
2023/05/24 09:08:38;;;;;;;;;;;;;;;12.62;51.67;98361.38;5012629;28;19922;-57
2023/05/24 09:11:10;;;;;;;;;;;;;;;12.48;51.20;98365.03;5012685;28;19964;-58
2023/05/24 09:13:38;;;;;;;;;;;;;;;12.44;52.06;98361.31;5009406;28;19921;-57
2023/05/24 09:16:07;;;;;;;;;;;;;;;12.53;51.83;98362.16;5004203;28;19928;-63
2023/05/24 09:18:35;;;;;;;;;;;;;;;12.56;52.13;98369.69;5016543;28;20027;-57
2023/05/24 09:21:03;;;;;;;;;;;;;;;12.42;51.89;98376.38;5011132;28;20278;-57
2023/05/24 09:23:31;;;;;;;;;;;;;;;12.51;51.56;98383.47;5010051;28;19968;-59
2023/05/24 09:25:59;;;;;;;;;;;;;;;12.56;51.56;98377.06;5013256;28;19934;-58
2023/05/24 09:28:32;;;;;;;;;;;;;;;12.54;51.53;98382.84;4996956;28;19949;-59
2023/05/24 09:31:00;;;;;;;;;;;;;;;12.51;52.19;98379.94;5008679;28;19929;-59
2023/05/24 09:33:31;;;;;;;;;;;;;;;12.56;51.50;98383.31;5013542;28;19928;-58
2023/05/24 09:35:59;;;;;;;;;;;;;;;12.60;51.25;98372.63;5012615;28;19976;-57
2023/05/24 09:38:27;;;;;;;;;;;;;;;12.57;51.78;98376.78;5017432;28;19921;-56
2023/05/24 09:40:59;;;;;;;;;;;;;;;12.43;51.70;98377.97;5009073;28;19930;-58
2023/05/24 09:43:28;;;;;;;;;;;;;;;12.41;52.73;98385.63;5010983;28;19925;-57
2023/05/24 09:45:59;;;;;;;;;;;;;;;12.44;51.79;98377.66;5007100;28;19921;-57
2023/05/24 09:48:30;;;;;;;;;;;;;;;12.51;51.58;98375.28;5010855;28;20247;-57
2023/05/24 09:51:04;;;;;;;;;;;;;;;12.45;51.94;98375.75;5018085;28;19921;-57
2023/05/24 09:53:33;;;;;;;;;;;;;;;12.47;52.10;98378.97;5018829;28;19921;-57
2023/05/24 09:56:03;;;;;;;;;;;;;;;12.56;51.45;98377.88;5015115;28;20375;-60
2023/05/24 09:58:32;;;;;;;;;;;;;;;12.65;51.02;98374.41;5017122;28;20265;-60
2023/05/24 10:01:06;;;;;;;;;;;;;;;12.51;51.29;98367.09;5005581;28;20032;-57
2023/05/24 10:03:34;;;;;;;;;;;;;;;12.57;51.07;98368.59;5012238;28;19922;-57
2023/05/24 10:06:05;;;;;;;;;;;;;;;12.62;51.07;98375.03;5020996;28;19921;-59
2023/05/24 10:08:34;;;;;;;;;;;;;;;12.69;51.10;98375.41;5014487;28;19975;-57
2023/05/24 10:11:03;;;;;;;;;;;;;;;12.83;50.00;98381.53;5011483;28;19922;-57
2023/05/24 10:13:31;;;;;;;;;;;;;;;12.84;49.69;98375.00;5019269;28;19922;-58
2023/05/24 10:15:59;;;;;;;;;;;;;;;12.88;50.44;98375.13;5005348;28;19922;-58
2023/05/24 10:18:28;;;;;;;;;;;;;;;12.85;50.08;98374.66;4995639;28;19926;-57
2023/05/24 10:20:56;;;;;;;;;;;;;;;12.83;50.16;98365.19;4992079;28;19922;-57
2023/05/24 10:23:25;;;;;;;;;;;;;;;12.81;50.85;98367.41;5011143;28;19956;-58
2023/05/24 10:25:55;;;;;;;;;;;;;;;12.93;50.51;98364.09;5015181;28;20425;-57
2023/05/24 10:28:23;;;;;;;;;;;;;;;13.06;49.59;98361.25;5024301;28;19925;-58
2023/05/24 10:30:53;;;;;;;;;;;;;;;13.06;49.87;98358.53;5026395;28;19963;-58
2023/05/24 10:33:21;;;;;;;;;;;;;;;13.16;49.33;98351.19;5031185;28;20310;-58
2023/05/24 10:35:51;;;;;;;;;;;;;;;13.26;49.89;98345.44;5030655;28;19957;-57
2023/05/24 10:38:20;;;;;;;;;;;;;;;13.35;48.95;98354.44;5029550;28;19925;-58
2023/05/24 10:40:48;;;;;;;;;;;;;;;13.37;48.98;98344.03;5027635;28;19921;-57
2023/05/24 10:43:16;;;;;;;;;;;;;;;13.52;48.10;98340.81;5017365;28;19933;-58
2023/05/24 10:45:48;;;;;;;;;;;;;;;13.63;48.08;98344.88;5024345;28;19975;-59
2023/05/24 10:48:36;;;;;;;;;;;;;;;13.77;47.45;98343.91;5050280;28;19924;-60
2023/05/24 10:51:23;;;;;;;;;;;;;;;13.87;47.59;98336.19;5036270;28;20024;-57
2023/05/24 10:53:52;;;;;;;;;;;;;;;13.89;46.15;98342.13;5036795;28;19974;-57
2023/05/24 10:56:22;;;;;;;;;;;;;;;13.91;46.52;98338.28;5032263;28;19975;-59
2023/05/24 10:58:59;;;;;;;;;;;;;;;13.86;46.33;98341.97;5031522;28;19933;-60
2023/05/24 11:01:27;;;;;;;;;;;;;;;13.84;46.75;98344.22;5029180;28;20648;-58
2023/05/24 11:04:05;;;;;;;;;;;;;;;13.79;48.11;98349.81;5016662;28;20337;-57
2023/05/24 11:06:46;;;;;;;;;;;;;;;13.80;45.53;98346.00;5032817;28;19921;-59
2023/05/24 11:09:18;;;;;;;;;;;;;;;13.87;45.26;98344.38;5033258;28;19931;-57
2023/05/24 11:11:47;;;;;;;;;;;;;;;13.88;45.95;98345.16;5030468;28;19940;-57
2023/05/24 11:14:18;;;;;;;;;;;;;;;13.99;45.96;98351.91;5040522;28;19976;-58
2023/05/24 11:16:46;;;;;;;;;;;;;;;14.11;45.85;98346.63;5030172;28;20016;-61
2023/05/24 11:19:14;;;;;;;;;;;;;;;14.10;43.77;98347.72;5042543;28;19921;-57
2023/05/24 11:21:43;;;;;;;;;;;;;;;13.94;43.59;98343.88;5034223;28;19928;-58
2023/05/24 11:24:11;;;;;;;;;;;;;;;13.86;44.35;98342.78;5029627;28;20008;-57
2023/05/24 11:26:40;;;;;;;;;;;;;;;13.77;43.86;98341.97;5033676;28;19975;-60
2023/05/24 11:29:08;;;;;;;;;;;;;;;13.83;43.77;98337.13;5032353;28;19964;-57
2023/05/24 11:31:38;;;;;;;;;;;;;;;13.97;43.96;98332.31;5029772;28;19921;-64
2023/05/24 11:34:10;;;;;;;;;;;;;;;14.19;43.73;98330.53;5034722;28;19925;-57
2023/05/24 11:36:38;;;;;;;;;;;;;;;14.35;43.36;98342.53;5032700;28;19929;-61
2023/05/24 11:39:08;;;;;;;;;;;;;;;14.46;43.89;98338.31;5032000;28;19979;-57
2023/05/24 11:41:37;;;;;;;;;;;;;;;14.38;43.85;98336.41;5034090;28;19968;-57
2023/05/24 11:44:06;;;;;;;;;;;;;;;14.47;43.97;98333.66;5032344;28;19921;-57
2023/05/24 11:46:34;;;;;;;;;;;;;;;14.58;43.59;98335.75;5024476;28;19931;-57
2023/05/24 11:49:03;;;;;;;;;;;;;;;14.46;43.52;98335.59;5040927;28;19921;-57
2023/05/24 11:51:31;;;;;;;;;;;;;;;14.49;43.65;98332.25;5033214;28;20050;-58
2023/05/24 11:53:59;;;;;;;;;;;;;;;14.60;42.88;98332.69;5032421;28;19986;-57
2023/05/24 11:56:29;;;;;;;;;;;;;;;14.44;41.55;98321.47;5032714;28;20276;-57
2023/05/24 11:59:06;;;;;;;;;;;;;;;14.31;41.84;98330.66;5033341;28;19938;-58
2023/05/24 12:01:37;;;;;;;;;;;;;;;14.31;42.01;98325.97;5029225;28;19977;-57
2023/05/24 12:04:05;;;;;;;;;;;;;;;14.27;42.31;98335.94;5032599;28;19936;-61
2023/05/24 12:06:37;;;;;;;;;;;;;;;14.21;42.82;98328.25;5033664;28;19989;-58
2023/05/24 12:09:09;;;;;;;;;;;;;;;14.43;42.50;98328.03;5030890;28;19931;-58
2023/05/24 12:11:38;;;;;;;;;;;;;;;14.65;41.75;98325.13;5020426;28;19982;-58
2023/05/24 12:14:06;;;;;;;;;;;;;;;14.73;40.92;98317.19;5032954;28;19936;-62
2023/05/24 12:16:37;;;;;;;;;;;;;;;14.76;40.83;98324.75;5030043;28;19963;-56
2023/05/24 12:19:05;;;;;;;;;;;;;;;14.75;40.41;98323.13;5041811;28;19939;-58
2023/05/24 12:21:41;;;;;;;;;;;;;;;14.64;39.99;98319.94;5034158;28;19935;-58
2023/05/24 12:24:09;;;;;;;;;;;;;;;14.72;38.85;98319.13;5033203;28;20029;-59
2023/05/24 12:26:40;;;;;;;;;;;;;;;14.70;39.21;98309.63;5014785;28;19976;-58
2023/05/24 12:29:08;;;;;;;;;;;;;;;14.63;39.70;98305.47;4986589;28;19932;-58
2023/05/24 12:31:37;;;;;;;;;;;;;;;14.63;40.51;98310.94;5005834;28;20472;-57
2023/05/24 12:34:06;;;;;;;;;;;;;;;14.57;40.70;98308.72;5018627;28;19929;-57
2023/05/24 12:36:35;;;;;;;;;;;;;;;14.62;39.31;98312.09;5013294;28;19922;-57
2023/05/24 12:39:18;;;;;;;;;;;;;;;14.56;39.10;98305.19;5017043;28;19933;-57
2023/05/24 12:41:50;;;;;;;;;;;;;;;14.54;40.23;98306.63;5012136;28;19921;-57
2023/05/24 12:44:21;;;;;;;;;;;;;;;14.62;40.96;98306.63;5011625;28;19921;-58
2023/05/24 12:46:52;;;;;;;;;;;;;;;14.73;42.34;98298.06;5004119;28;20011;-58
2023/05/24 12:49:20;;;;;;;;;;;;;;;14.91;41.13;98300.38;5014888;28;19936;-57
2023/05/24 12:51:48;;;;;;;;;;;;;;;14.97;39.79;98298.25;5014070;28;19998;-57
2023/05/24 12:54:18;;;;;;;;;;;;;;;14.94;40.94;98294.22;5019430;28;19943;-57
2023/05/24 12:56:46;;;;;;;;;;;;;;;14.85;40.29;98292.66;5024561;28;19986;-57